sensor_id;sensor_type;location;lat;lon;timestamp;P1;durP1;ratioP1;P2;durP2;ratioP2
41139;SDS011;26881;48.784;9.192;2022-11-15T00:02:49;8.25;;;3.78;;
41139;SDS011;26881;48.784;9.192;2022-11-15T00:08:11;5.38;;;3.97;;
41139;SDS011;26881;48.784;9.192;2022-11-15T00:13:33;4.97;;;3.63;;
41139;SDS011;26881;48.784;9.192;2022-11-15T00:18:55;8.90;;;3.35;;
41139;SDS011;26881;48.784;9.192;2022-11-15T00:24:18;7.75;;;3.10;;
41139;SDS011;26881;48.784;9.192;2022-11-15T00:29:40;5.00;;;3.03;;
41139;SDS011;26881;48.784;9.192;2022-11-15T00:35:04;4.43;;;3.08;;
41139;SDS011;26881;48.784;9.192;2022-11-15T00:40:26;6.22;;;3.08;;
41139;SDS011;26881;48.784;9.192;2022-11-15T00:45:48;8.00;;;3.30;;
41139;SDS011;26881;48.784;9.192;2022-11-15T00:51:10;6.65;;;3.40;;
41139;SDS011;26881;48.784;9.192;2022-11-15T00:56:32;9.95;;;3.70;;
41139;SDS011;26881;48.784;9.192;2022-11-15T01:01:53;5.70;;;3.08;;
41139;SDS011;26881;48.784;9.192;2022-11-15T01:07:15;6.15;;;3.10;;
41139;SDS011;26881;48.784;9.192;2022-11-15T01:12:37;4.25;;;3.10;;
41139;SDS011;26881;48.784;9.192;2022-11-15T01:17:59;7.68;;;2.92;;
41139;SDS011;26881;48.784;9.192;2022-11-15T01:23:21;4.25;;;2.80;;
41139;SDS011;26881;48.784;9.192;2022-11-15T01:28:42;6.63;;;2.92;;
41139;SDS011;26881;48.784;9.192;2022-11-15T01:34:04;13.20;;;3.30;;
41139;SDS011;26881;48.784;9.192;2022-11-15T01:39:26;4.25;;;2.97;;
41139;SDS011;26881;48.784;9.192;2022-11-15T01:44:48;7.10;;;3.05;;
41139;SDS011;26881;48.784;9.192;2022-11-15T01:50:13;5.57;;;3.50;;
41139;SDS011;26881;48.784;9.192;2022-11-15T01:55:38;8.43;;;3.28;;
41139;SDS011;26881;48.784;9.192;2022-11-15T02:01:00;4.90;;;3.17;;
41139;SDS011;26881;48.784;9.192;2022-11-15T02:06:22;4.22;;;3.20;;
41139;SDS011;26881;48.784;9.192;2022-11-15T02:11:44;5.05;;;3.10;;
41139;SDS011;26881;48.784;9.192;2022-11-15T02:29:28;3.42;;;2.60;;
41139;SDS011;26881;48.784;9.192;2022-11-15T02:35:08;6.53;;;3.00;;
41139;SDS011;26881;48.784;9.192;2022-11-15T02:40:44;4.30;;;2.47;;
41139;SDS011;26881;48.784;9.192;2022-11-15T02:46:22;4.32;;;2.70;;
41139;SDS011;26881;48.784;9.192;2022-11-15T02:52:13;3.97;;;2.50;;
41139;SDS011;26881;48.784;9.192;2022-11-15T02:57:48;3.72;;;2.75;;
41139;SDS011;26881;48.784;9.192;2022-11-15T03:03:33;5.68;;;2.78;;
41139;SDS011;26881;48.784;9.192;2022-11-15T03:09:08;5.72;;;2.80;;
41139;SDS011;26881;48.784;9.192;2022-11-15T03:14:36;4.68;;;3.05;;
41139;SDS011;26881;48.784;9.192;2022-11-15T03:20:07;6.32;;;2.38;;
41139;SDS011;26881;48.784;9.192;2022-11-15T03:25:31;6.28;;;2.63;;
41139;SDS011;26881;48.784;9.192;2022-11-15T03:30:57;3.08;;;2.28;;
41139;SDS011;26881;48.784;9.192;2022-11-15T03:36:23;6.75;;;2.75;;
41139;SDS011;26881;48.784;9.192;2022-11-15T03:47:36;4.20;;;2.50;;
41139;SDS011;26881;48.784;9.192;2022-11-15T03:53:03;4.70;;;2.28;;
41139;SDS011;26881;48.784;9.192;2022-11-15T03:58:25;4.78;;;2.33;;
41139;SDS011;26881;48.784;9.192;2022-11-15T04:03:47;4.93;;;2.90;;
41139;SDS011;26881;48.784;9.192;2022-11-15T04:09:08;2.67;;;2.47;;
41139;SDS011;26881;48.784;9.192;2022-11-15T04:14:30;5.30;;;2.97;;
41139;SDS011;26881;48.784;9.192;2022-11-15T04:19:52;9.52;;;3.15;;
41139;SDS011;26881;48.784;9.192;2022-11-15T04:25:32;7.15;;;2.95;;
41139;SDS011;26881;48.784;9.192;2022-11-15T04:30:54;4.38;;;2.80;;
41139;SDS011;26881;48.784;9.192;2022-11-15T04:36:16;4.00;;;2.42;;
41139;SDS011;26881;48.784;9.192;2022-11-15T04:41:56;2.90;;;2.10;;
41139;SDS011;26881;48.784;9.192;2022-11-15T04:47:18;4.43;;;2.25;;
41139;SDS011;26881;48.784;9.192;2022-11-15T04:52:40;5.60;;;3.17;;
41139;SDS011;26881;48.784;9.192;2022-11-15T04:58:03;5.03;;;3.10;;
41139;SDS011;26881;48.784;9.192;2022-11-15T05:03:25;5.55;;;2.78;;
41139;SDS011;26881;48.784;9.192;2022-11-15T05:09:05;4.90;;;2.67;;
41139;SDS011;26881;48.784;9.192;2022-11-15T05:14:27;4.88;;;3.55;;
41139;SDS011;26881;48.784;9.192;2022-11-15T05:19:50;6.90;;;3.80;;
41139;SDS011;26881;48.784;9.192;2022-11-15T05:25:13;3.97;;;3.40;;
41139;SDS011;26881;48.784;9.192;2022-11-15T05:30:35;5.97;;;3.10;;
41139;SDS011;26881;48.784;9.192;2022-11-15T05:35:59;4.47;;;3.08;;
41139;SDS011;26881;48.784;9.192;2022-11-15T05:41:27;4.35;;;2.78;;
41139;SDS011;26881;48.784;9.192;2022-11-15T05:46:53;5.37;;;3.00;;
41139;SDS011;26881;48.784;9.192;2022-11-15T05:52:18;5.25;;;2.42;;
41139;SDS011;26881;48.784;9.192;2022-11-15T05:57:44;4.55;;;2.85;;
41139;SDS011;26881;48.784;9.192;2022-11-15T06:03:06;5.35;;;3.70;;
41139;SDS011;26881;48.784;9.192;2022-11-15T06:08:28;7.00;;;4.10;;
41139;SDS011;26881;48.784;9.192;2022-11-15T06:13:49;4.70;;;3.80;;
41139;SDS011;26881;48.784;9.192;2022-11-15T06:19:11;4.90;;;3.70;;
41139;SDS011;26881;48.784;9.192;2022-11-15T06:24:33;7.47;;;3.45;;
41139;SDS011;26881;48.784;9.192;2022-11-15T06:29:54;5.22;;;4.10;;
41139;SDS011;26881;48.784;9.192;2022-11-15T06:35:16;6.03;;;4.25;;
41139;SDS011;26881;48.784;9.192;2022-11-15T06:40:38;4.72;;;2.60;;
41139;SDS011;26881;48.784;9.192;2022-11-15T06:46:01;11.52;;;2.83;;
41139;SDS011;26881;48.784;9.192;2022-11-15T06:51:24;4.50;;;3.20;;
41139;SDS011;26881;48.784;9.192;2022-11-15T06:56:46;3.05;;;2.70;;
41139;SDS011;26881;48.784;9.192;2022-11-15T07:02:13;3.20;;;2.63;;
41139;SDS011;26881;48.784;9.192;2022-11-15T07:07:35;5.07;;;2.97;;
41139;SDS011;26881;48.784;9.192;2022-11-15T07:12:57;7.33;;;3.63;;
41139;SDS011;26881;48.784;9.192;2022-11-15T07:18:19;11.98;;;3.70;;
41139;SDS011;26881;48.784;9.192;2022-11-15T07:23:41;7.93;;;3.60;;
41139;SDS011;26881;48.784;9.192;2022-11-15T07:29:02;10.10;;;3.95;;
41139;SDS011;26881;48.784;9.192;2022-11-15T07:34:24;7.40;;;3.70;;
41139;SDS011;26881;48.784;9.192;2022-11-15T07:39:46;6.78;;;3.50;;
41139;SDS011;26881;48.784;9.192;2022-11-15T07:45:08;5.27;;;3.67;;
41139;SDS011;26881;48.784;9.192;2022-11-15T07:50:30;8.32;;;3.75;;
41139;SDS011;26881;48.784;9.192;2022-11-15T07:55:52;4.65;;;3.50;;
41139;SDS011;26881;48.784;9.192;2022-11-15T08:01:14;9.68;;;4.70;;
41139;SDS011;26881;48.784;9.192;2022-11-15T08:06:36;13.05;;;7.28;;
41139;SDS011;26881;48.784;9.192;2022-11-15T08:11:58;14.20;;;6.82;;
41139;SDS011;26881;48.784;9.192;2022-11-15T08:17:20;10.57;;;6.97;;
41139;SDS011;26881;48.784;9.192;2022-11-15T08:22:42;10.80;;;6.83;;
41139;SDS011;26881;48.784;9.192;2022-11-15T08:28:05;13.18;;;6.88;;
41139;SDS011;26881;48.784;9.192;2022-11-15T08:33:28;12.88;;;7.30;;
41139;SDS011;26881;48.784;9.192;2022-11-15T08:38:51;18.63;;;7.10;;
41139;SDS011;26881;48.784;9.192;2022-11-15T08:44:13;11.43;;;6.65;;
41139;SDS011;26881;48.784;9.192;2022-11-15T08:49:35;9.68;;;5.95;;
41139;SDS011;26881;48.784;9.192;2022-11-15T08:54:57;10.38;;;6.07;;
41139;SDS011;26881;48.784;9.192;2022-11-15T09:00:19;12.45;;;5.55;;
41139;SDS011;26881;48.784;9.192;2022-11-15T09:05:41;12.02;;;7.97;;
41139;SDS011;26881;48.784;9.192;2022-11-15T09:11:06;12.35;;;5.95;;
41139;SDS011;26881;48.784;9.192;2022-11-15T09:16:30;9.10;;;5.72;;
41139;SDS011;26881;48.784;9.192;2022-11-15T09:21:52;11.47;;;5.53;;
41139;SDS011;26881;48.784;9.192;2022-11-15T09:27:14;10.30;;;5.60;;
41139;SDS011;26881;48.784;9.192;2022-11-15T09:32:36;10.10;;;5.35;;
41139;SDS011;26881;48.784;9.192;2022-11-15T09:38:00;12.77;;;7.45;;
41139;SDS011;26881;48.784;9.192;2022-11-15T09:49:06;10.48;;;5.55;;
41139;SDS011;26881;48.784;9.192;2022-11-15T10:00:18;10.38;;;5.45;;
41139;SDS011;26881;48.784;9.192;2022-11-15T10:06:03;8.13;;;5.07;;
41139;SDS011;26881;48.784;9.192;2022-11-15T10:11:28;10.15;;;6.32;;
41139;SDS011;26881;48.784;9.192;2022-11-15T10:22:35;10.82;;;5.32;;
41139;SDS011;26881;48.784;9.192;2022-11-15T10:28:14;12.18;;;5.13;;
41139;SDS011;26881;48.784;9.192;2022-11-15T10:33:42;9.30;;;5.80;;
41139;SDS011;26881;48.784;9.192;2022-11-15T10:39:04;12.13;;;5.47;;
41139;SDS011;26881;48.784;9.192;2022-11-15T10:44:27;11.20;;;5.55;;
41139;SDS011;26881;48.784;9.192;2022-11-15T10:49:54;10.73;;;5.25;;
41139;SDS011;26881;48.784;9.192;2022-11-15T10:55:21;13.55;;;6.03;;
41139;SDS011;26881;48.784;9.192;2022-11-15T11:00:47;11.63;;;5.95;;
41139;SDS011;26881;48.784;9.192;2022-11-15T11:06:10;12.50;;;5.88;;
41139;SDS011;26881;48.784;9.192;2022-11-15T11:11:50;14.85;;;6.40;;
41139;SDS011;26881;48.784;9.192;2022-11-15T11:17:16;21.55;;;8.40;;
41139;SDS011;26881;48.784;9.192;2022-11-15T11:34:16;11.25;;;6.20;;
41139;SDS011;26881;48.784;9.192;2022-11-15T11:40:00;13.75;;;8.50;;
41139;SDS011;26881;48.784;9.192;2022-11-15T11:51:05;14.50;;;6.57;;
41139;SDS011;26881;48.784;9.192;2022-11-15T11:56:37;12.68;;;6.72;;
41139;SDS011;26881;48.784;9.192;2022-11-15T12:02:38;13.98;;;6.75;;
41139;SDS011;26881;48.784;9.192;2022-11-15T12:07:58;13.45;;;5.25;;
41139;SDS011;26881;48.784;9.192;2022-11-15T12:13:26;9.10;;;5.80;;
41139;SDS011;26881;48.784;9.192;2022-11-15T12:18:51;14.40;;;5.45;;
41139;SDS011;26881;48.784;9.192;2022-11-15T12:24:17;8.27;;;4.45;;
41139;SDS011;26881;48.784;9.192;2022-11-15T12:29:46;8.30;;;4.57;;
41139;SDS011;26881;48.784;9.192;2022-11-15T12:35:21;9.70;;;4.32;;
41139;SDS011;26881;48.784;9.192;2022-11-15T12:41:12;13.18;;;4.70;;
41139;SDS011;26881;48.784;9.192;2022-11-15T13:03:12;9.63;;;4.80;;
41139;SDS011;26881;48.784;9.192;2022-11-15T13:08:43;10.32;;;4.85;;
41139;SDS011;26881;48.784;9.192;2022-11-15T13:14:34;8.55;;;4.65;;
41139;SDS011;26881;48.784;9.192;2022-11-15T13:20:09;7.55;;;2.90;;
41139;SDS011;26881;48.784;9.192;2022-11-15T13:25:44;5.35;;;3.13;;
41139;SDS011;26881;48.784;9.192;2022-11-15T13:36:59;5.05;;;2.92;;
41139;SDS011;26881;48.784;9.192;2022-11-15T13:42:21;7.45;;;2.72;;
41139;SDS011;26881;48.784;9.192;2022-11-15T13:47:42;8.15;;;3.47;;
41139;SDS011;26881;48.784;9.192;2022-11-15T13:53:04;8.30;;;4.45;;
41139;SDS011;26881;48.784;9.192;2022-11-15T13:58:27;6.47;;;3.90;;
41139;SDS011;26881;48.784;9.192;2022-11-15T14:09:22;7.13;;;4.50;;
41139;SDS011;26881;48.784;9.192;2022-11-15T14:14:51;11.50;;;4.28;;
41139;SDS011;26881;48.784;9.192;2022-11-15T14:20:24;8.60;;;4.60;;
41139;SDS011;26881;48.784;9.192;2022-11-15T14:25:55;7.55;;;4.43;;
41139;SDS011;26881;48.784;9.192;2022-11-15T14:31:18;6.93;;;4.97;;
41139;SDS011;26881;48.784;9.192;2022-11-15T14:36:41;13.13;;;5.45;;
41139;SDS011;26881;48.784;9.192;2022-11-15T14:42:03;13.40;;;5.65;;
41139;SDS011;26881;48.784;9.192;2022-11-15T14:47:26;6.72;;;4.88;;
41139;SDS011;26881;48.784;9.192;2022-11-15T14:52:48;9.63;;;4.47;;
41139;SDS011;26881;48.784;9.192;2022-11-15T14:58:10;10.80;;;3.83;;
41139;SDS011;26881;48.784;9.192;2022-11-15T15:03:32;7.35;;;3.60;;
41139;SDS011;26881;48.784;9.192;2022-11-15T15:08:54;6.07;;;4.20;;
41139;SDS011;26881;48.784;9.192;2022-11-15T15:14:15;4.78;;;3.33;;
41139;SDS011;26881;48.784;9.192;2022-11-15T15:19:37;6.50;;;3.75;;
41139;SDS011;26881;48.784;9.192;2022-11-15T15:24:59;7.93;;;3.45;;
41139;SDS011;26881;48.784;9.192;2022-11-15T15:30:21;7.43;;;4.45;;
41139;SDS011;26881;48.784;9.192;2022-11-15T15:35:44;9.38;;;4.10;;
41139;SDS011;26881;48.784;9.192;2022-11-15T15:41:09;4.82;;;3.90;;
41139;SDS011;26881;48.784;9.192;2022-11-15T15:46:31;7.35;;;3.78;;
41139;SDS011;26881;48.784;9.192;2022-11-15T15:51:55;5.50;;;3.80;;
41139;SDS011;26881;48.784;9.192;2022-11-15T15:57:16;7.70;;;3.40;;
41139;SDS011;26881;48.784;9.192;2022-11-15T16:02:38;12.32;;;4.85;;
41139;SDS011;26881;48.784;9.192;2022-11-15T16:08:01;10.20;;;4.63;;
41139;SDS011;26881;48.784;9.192;2022-11-15T16:13:23;9.38;;;4.90;;
41139;SDS011;26881;48.784;9.192;2022-11-15T16:18:44;15.15;;;5.60;;
41139;SDS011;26881;48.784;9.192;2022-11-15T16:24:06;12.35;;;5.30;;
41139;SDS011;26881;48.784;9.192;2022-11-15T16:29:28;10.05;;;4.75;;
41139;SDS011;26881;48.784;9.192;2022-11-15T16:34:50;7.90;;;5.07;;
41139;SDS011;26881;48.784;9.192;2022-11-15T16:40:25;6.07;;;4.38;;
41139;SDS011;26881;48.784;9.192;2022-11-15T16:45:49;7.95;;;5.25;;
41139;SDS011;26881;48.784;9.192;2022-11-15T16:51:11;8.48;;;5.13;;
41139;SDS011;26881;48.784;9.192;2022-11-15T16:56:33;11.02;;;4.82;;
41139;SDS011;26881;48.784;9.192;2022-11-15T17:01:55;10.57;;;6.80;;
41139;SDS011;26881;48.784;9.192;2022-11-15T17:07:17;9.48;;;5.55;;
41139;SDS011;26881;48.784;9.192;2022-11-15T17:12:39;7.68;;;5.90;;
41139;SDS011;26881;48.784;9.192;2022-11-15T17:18:00;12.98;;;7.13;;
41139;SDS011;26881;48.784;9.192;2022-11-15T17:23:22;15.73;;;6.10;;
41139;SDS011;26881;48.784;9.192;2022-11-15T17:28:44;6.80;;;4.25;;
41139;SDS011;26881;48.784;9.192;2022-11-15T17:34:06;7.93;;;4.97;;
41139;SDS011;26881;48.784;9.192;2022-11-15T17:39:27;13.75;;;8.57;;
41139;SDS011;26881;48.784;9.192;2022-11-15T17:44:49;12.48;;;7.00;;
41139;SDS011;26881;48.784;9.192;2022-11-15T17:50:11;12.68;;;6.80;;
41139;SDS011;26881;48.784;9.192;2022-11-15T17:55:34;9.85;;;6.28;;
41139;SDS011;26881;48.784;9.192;2022-11-15T18:01:03;14.23;;;6.05;;
41139;SDS011;26881;48.784;9.192;2022-11-15T18:06:27;17.52;;;6.07;;
41139;SDS011;26881;48.784;9.192;2022-11-15T18:11:51;11.02;;;6.15;;
41139;SDS011;26881;48.784;9.192;2022-11-15T18:17:14;10.35;;;6.85;;
41139;SDS011;26881;48.784;9.192;2022-11-15T18:22:38;11.93;;;7.05;;
41139;SDS011;26881;48.784;9.192;2022-11-15T18:28:00;9.50;;;6.97;;
41139;SDS011;26881;48.784;9.192;2022-11-15T18:33:22;14.20;;;8.73;;
41139;SDS011;26881;48.784;9.192;2022-11-15T18:38:43;13.95;;;8.98;;
41139;SDS011;26881;48.784;9.192;2022-11-15T18:44:05;12.07;;;6.95;;
41139;SDS011;26881;48.784;9.192;2022-11-15T18:49:27;9.40;;;6.68;;
41139;SDS011;26881;48.784;9.192;2022-11-15T18:54:49;12.68;;;7.47;;
41139;SDS011;26881;48.784;9.192;2022-11-15T19:00:11;12.68;;;6.90;;
41139;SDS011;26881;48.784;9.192;2022-11-15T19:05:33;11.27;;;7.07;;
41139;SDS011;26881;48.784;9.192;2022-11-15T19:10:55;11.77;;;7.82;;
41139;SDS011;26881;48.784;9.192;2022-11-15T19:16:17;13.68;;;6.95;;
41139;SDS011;26881;48.784;9.192;2022-11-15T19:21:39;18.38;;;7.93;;
41139;SDS011;26881;48.784;9.192;2022-11-15T19:27:01;10.23;;;7.15;;
41139;SDS011;26881;48.784;9.192;2022-11-15T19:32:22;13.75;;;7.72;;
41139;SDS011;26881;48.784;9.192;2022-11-15T19:37:44;13.82;;;6.85;;
41139;SDS011;26881;48.784;9.192;2022-11-15T19:43:06;12.02;;;7.38;;
41139;SDS011;26881;48.784;9.192;2022-11-15T19:48:28;15.98;;;10.65;;
41139;SDS011;26881;48.784;9.192;2022-11-15T19:53:52;15.82;;;8.88;;
41139;SDS011;26881;48.784;9.192;2022-11-15T19:59:16;15.82;;;7.55;;
41139;SDS011;26881;48.784;9.192;2022-11-15T20:04:37;9.95;;;7.07;;
41139;SDS011;26881;48.784;9.192;2022-11-15T20:09:59;11.00;;;7.45;;
41139;SDS011;26881;48.784;9.192;2022-11-15T20:15:21;7.60;;;4.78;;
41139;SDS011;26881;48.784;9.192;2022-11-15T20:20:43;13.90;;;6.43;;
41139;SDS011;26881;48.784;9.192;2022-11-15T20:26:06;11.50;;;6.65;;
41139;SDS011;26881;48.784;9.192;2022-11-15T20:31:29;12.75;;;6.88;;
41139;SDS011;26881;48.784;9.192;2022-11-15T20:36:53;7.78;;;6.13;;
41139;SDS011;26881;48.784;9.192;2022-11-15T20:42:14;8.80;;;6.28;;
41139;SDS011;26881;48.784;9.192;2022-11-15T20:47:36;11.43;;;7.00;;
41139;SDS011;26881;48.784;9.192;2022-11-15T20:52:58;14.93;;;8.07;;
41139;SDS011;26881;48.784;9.192;2022-11-15T20:58:20;10.43;;;7.47;;
41139;SDS011;26881;48.784;9.192;2022-11-15T21:03:41;16.90;;;9.05;;
41139;SDS011;26881;48.784;9.192;2022-11-15T21:09:04;18.55;;;10.77;;
41139;SDS011;26881;48.784;9.192;2022-11-15T21:14:44;15.30;;;10.10;;
41139;SDS011;26881;48.784;9.192;2022-11-15T21:20:07;13.18;;;8.85;;
41139;SDS011;26881;48.784;9.192;2022-11-15T21:25:29;12.48;;;7.53;;
41139;SDS011;26881;48.784;9.192;2022-11-15T21:30:51;13.95;;;7.68;;
41139;SDS011;26881;48.784;9.192;2022-11-15T21:36:14;13.80;;;8.13;;
41139;SDS011;26881;48.784;9.192;2022-11-15T21:41:36;11.60;;;8.13;;
41139;SDS011;26881;48.784;9.192;2022-11-15T21:46:58;11.48;;;7.13;;
41139;SDS011;26881;48.784;9.192;2022-11-15T21:52:20;10.13;;;6.72;;
41139;SDS011;26881;48.784;9.192;2022-11-15T21:57:42;11.13;;;6.80;;
41139;SDS011;26881;48.784;9.192;2022-11-15T22:03:04;11.48;;;7.80;;
41139;SDS011;26881;48.784;9.192;2022-11-15T22:08:26;11.73;;;7.40;;
41139;SDS011;26881;48.784;9.192;2022-11-15T22:13:48;10.85;;;6.75;;
41139;SDS011;26881;48.784;9.192;2022-11-15T22:19:09;10.85;;;7.15;;
41139;SDS011;26881;48.784;9.192;2022-11-15T22:24:31;8.57;;;6.65;;
41139;SDS011;26881;48.784;9.192;2022-11-15T22:29:53;8.35;;;6.05;;
41139;SDS011;26881;48.784;9.192;2022-11-15T22:35:15;7.82;;;5.82;;
41139;SDS011;26881;48.784;9.192;2022-11-15T22:40:37;9.60;;;6.30;;
41139;SDS011;26881;48.784;9.192;2022-11-15T22:45:59;8.25;;;5.90;;
41139;SDS011;26881;48.784;9.192;2022-11-15T22:51:22;8.85;;;6.25;;
41139;SDS011;26881;48.784;9.192;2022-11-15T22:56:45;8.82;;;5.82;;
41139;SDS011;26881;48.784;9.192;2022-11-15T23:02:07;8.35;;;5.35;;
41139;SDS011;26881;48.784;9.192;2022-11-15T23:07:28;7.57;;;5.40;;
41139;SDS011;26881;48.784;9.192;2022-11-15T23:12:50;8.85;;;5.60;;
41139;SDS011;26881;48.784;9.192;2022-11-15T23:18:34;9.13;;;5.55;;
41139;SDS011;26881;48.784;9.192;2022-11-15T23:23:57;6.18;;;4.50;;
41139;SDS011;26881;48.784;9.192;2022-11-15T23:29:20;7.55;;;4.22;;
41139;SDS011;26881;48.784;9.192;2022-11-15T23:34:44;6.93;;;4.20;;
41139;SDS011;26881;48.784;9.192;2022-11-15T23:40:06;5.93;;;4.07;;
41139;SDS011;26881;48.784;9.192;2022-11-15T23:45:28;6.45;;;4.00;;
41139;SDS011;26881;48.784;9.192;2022-11-15T23:50:50;4.13;;;3.72;;
41139;SDS011;26881;48.784;9.192;2022-11-15T23:56:12;6.07;;;4.50;;
